Time;durP1;ratioP1;P1;durP2;ratioP2;P2;SDS_P1;SDS_P2;PMS_P1;PMS_P2;Temp;Humidity;BMP_temperature;BMP_pressure;BME280_temperature;BME280_humidity;BME280_pressure;Samples;Min_cycle;Max_cycle;Signal;HPM_P1;HPM_P2
2022/09/02 00:01:48;;;;;;;5.38;3.28;;;;;;;;;;5036380;28;20033;-72
2022/09/02 00:04:34;;;;;;;4.80;2.92;;;;;;;;;;5044333;28;20033;-77
2022/09/02 00:07:20;;;;;;;7.43;4.40;;;;;;;;;;5035852;28;20056;-76
2022/09/02 00:10:05;;;;;;;5.07;3.15;;;;;;;;;;5040878;28;20039;-75
2022/09/02 00:12:51;;;;;;;6.30;3.30;;;;;;;;;;5038281;28;20048;-75
2022/09/02 00:15:36;;;;;;;4.05;3.17;;;;;;;;;;5035268;28;20362;-75
2022/09/02 00:18:22;;;;;;;6.18;3.30;;;;;;;;;;5030365;28;20051;-75
2022/09/02 00:21:10;;;;;;;6.68;3.65;;;;;;;;;;5030320;28;20108;-75
2022/09/02 00:23:56;;;;;;;5.07;3.17;;;;;;;;;;5024713;28;20033;-75
2022/09/02 00:26:42;;;;;;;9.57;3.78;;;;;;;;;;5040322;28;20114;-76
2022/09/02 00:29:28;;;;;;;6.30;3.20;;;;;;;;;;5031203;28;20025;-75
2022/09/02 00:32:14;;;;;;;5.95;3.28;;;;;;;;;;5031578;28;20468;-76
2022/09/02 00:35:00;;;;;;;6.50;3.70;;;;;;;;;;5031728;28;20028;-77
2022/09/02 00:37:45;;;;;;;7.28;4.07;;;;;;;;;;5032485;28;20101;-78
2022/09/02 00:40:31;;;;;;;6.28;3.53;;;;;;;;;;5041655;28;20417;-76
2022/09/02 00:43:36;;;;;;;7.70;3.42;;;;;;;;;;5031285;28;20033;-75
2022/09/02 00:46:23;;;;;;;3.97;2.80;;;;;;;;;;5040544;28;20035;-76
2022/09/02 00:49:11;;;;;;;10.05;4.45;;;;;;;;;;5036389;28;20025;-77
2022/09/02 00:52:15;;;;;;;3.42;2.90;;;;;;;;;;5016527;28;20029;-77
2022/09/02 00:55:03;;;;;;;6.53;3.60;;;;;;;;;;5028796;28;20033;-77
2022/09/02 00:57:51;;;;;;;5.10;3.72;;;;;;;;;;5032949;28;20033;-77
2022/09/02 01:00:43;;;;;;;6.07;3.42;;;;;;;;;;5031363;28;20515;-75
2022/09/02 01:03:30;;;;;;;4.90;3.42;;;;;;;;;;5032393;28;20111;-76
2022/09/02 01:06:17;;;;;;;8.15;3.58;;;;;;;;;;5029209;28;20504;-75
2022/09/02 01:09:08;;;;;;;5.70;3.38;;;;;;;;;;5034791;28;20125;-75
2022/09/02 01:11:54;;;;;;;4.78;3.00;;;;;;;;;;5031316;28;20026;-76
2022/09/02 01:14:39;;;;;;;3.95;3.17;;;;;;;;;;5032062;28;20065;-75
2022/09/02 01:17:25;;;;;;;4.53;3.03;;;;;;;;;;5030964;28;20464;-77
2022/09/02 01:20:12;;;;;;;6.75;3.47;;;;;;;;;;5038442;28;20034;-88
2022/09/02 01:22:58;;;;;;;6.32;3.63;;;;;;;;;;5045169;28;20057;-87
2022/09/02 01:25:44;;;;;;;6.13;3.25;;;;;;;;;;5043509;28;20040;-88
2022/09/02 01:28:32;;;;;;;5.07;3.78;;;;;;;;;;5046970;28;20033;-88
2022/09/02 01:31:17;;;;;;;6.30;3.60;;;;;;;;;;5046335;28;20057;-88
2022/09/02 01:34:05;;;;;;;4.80;2.78;;;;;;;;;;5054793;28;20094;-89
2022/09/02 01:36:51;;;;;;;4.55;3.50;;;;;;;;;;5040212;28;20026;-85
2022/09/02 01:39:36;;;;;;;5.75;3.10;;;;;;;;;;5024169;28;20545;-75
2022/09/02 01:42:22;;;;;;;4.47;3.08;;;;;;;;;;5030755;28;20041;-76
2022/09/02 01:45:08;;;;;;;4.07;3.42;;;;;;;;;;5032001;28;20057;-76
2022/09/02 01:47:53;;;;;;;5.47;3.20;;;;;;;;;;5022574;28;20040;-76
2022/09/02 01:50:40;;;;;;;6.88;3.17;;;;;;;;;;5031479;28;20033;-76
2022/09/02 01:53:26;;;;;;;4.35;3.28;;;;;;;;;;5025376;28;20480;-75
2022/09/02 01:56:12;;;;;;;5.88;3.25;;;;;;;;;;5035045;28;20061;-72
2022/09/02 01:58:58;;;;;;;5.05;3.55;;;;;;;;;;5041442;28;20041;-77
2022/09/02 02:01:44;;;;;;;4.65;3.47;;;;;;;;;;5043634;28;20029;-77
2022/09/02 02:04:30;;;;;;;5.53;3.08;;;;;;;;;;5042575;28;20033;-77
2022/09/02 02:07:16;;;;;;;5.78;3.28;;;;;;;;;;5019425;28;20100;-77
2022/09/02 02:10:03;;;;;;;4.90;3.33;;;;;;;;;;5042793;28;20041;-77
2022/09/02 02:12:49;;;;;;;6.72;3.67;;;;;;;;;;5043247;28;20486;-86
2022/09/02 02:15:38;;;;;;;4.22;3.08;;;;;;;;;;5019975;28;20037;-76
2022/09/02 02:18:24;;;;;;;7.88;3.70;;;;;;;;;;5039112;28;20492;-75
2022/09/02 02:21:09;;;;;;;4.32;3.22;;;;;;;;;;5028971;28;20491;-75
2022/09/02 02:24:00;;;;;;;5.50;3.40;;;;;;;;;;5038196;28;20464;-75
2022/09/02 02:26:46;;;;;;;5.75;3.67;;;;;;;;;;5037435;28;20122;-75
2022/09/02 02:29:31;;;;;;;6.47;3.05;;;;;;;;;;5047628;28;20033;-75
2022/09/02 02:32:18;;;;;;;3.40;3.00;;;;;;;;;;5034404;28;20033;-73
2022/09/02 02:35:04;;;;;;;7.78;3.08;;;;;;;;;;5020483;28;20041;-77
2022/09/02 02:37:50;;;;;;;4.82;3.10;;;;;;;;;;5032540;28;20384;-77
2022/09/02 02:40:36;;;;;;;7.45;3.33;;;;;;;;;;5035353;28;20114;-77
2022/09/02 02:43:22;;;;;;;5.53;2.95;;;;;;;;;;5035171;28;20033;-76
2022/09/02 02:46:08;;;;;;;7.85;3.67;;;;;;;;;;5027559;28;20539;-77
2022/09/02 02:48:53;;;;;;;6.18;3.00;;;;;;;;;;5037569;28;20423;-76
2022/09/02 02:51:39;;;;;;;6.63;3.38;;;;;;;;;;5037628;28;20055;-77
2022/09/02 02:54:24;;;;;;;5.47;2.88;;;;;;;;;;5054580;28;20021;-90
2022/09/02 02:57:12;;;;;;;4.25;2.95;;;;;;;;;;5042081;28;20022;-89
2022/09/02 03:00:01;;;;;;;9.00;3.42;;;;;;;;;;5035104;28;20030;-89
2022/09/02 03:02:48;;;;;;;4.07;2.80;;;;;;;;;;5049040;28;20029;-88
2022/09/02 03:05:36;;;;;;;4.40;2.70;;;;;;;;;;5028862;28;20179;-86
2022/09/02 03:08:25;;;;;;;3.80;2.92;;;;;;;;;;5048966;28;20030;-88
2022/09/02 03:11:11;;;;;;;5.85;2.63;;;;;;;;;;5034399;28;20056;-75
2022/09/02 03:13:57;;;;;;;7.63;2.72;;;;;;;;;;5036429;28;20520;-75
2022/09/02 03:16:43;;;;;;;5.32;3.05;;;;;;;;;;5042810;28;20033;-75
2022/09/02 03:19:29;;;;;;;10.90;2.90;;;;;;;;;;5042049;28;20052;-76
2022/09/02 03:22:14;;;;;;;4.72;3.22;;;;;;;;;;5033330;28;20029;-75
2022/09/02 03:25:00;;;;;;;4.97;3.20;;;;;;;;;;5032458;28;20112;-75
2022/09/02 03:27:46;;;;;;;6.18;2.97;;;;;;;;;;5018728;28;20456;-77
2022/09/02 03:30:33;;;;;;;4.65;3.10;;;;;;;;;;5022447;28;20039;-76
2022/09/02 03:33:18;;;;;;;6.18;3.33;;;;;;;;;;5033462;28;20068;-77
2022/09/02 03:36:04;;;;;;;7.07;3.22;;;;;;;;;;5031823;28;20033;-77
2022/09/02 03:38:50;;;;;;;4.40;2.47;;;;;;;;;;5048614;28;20036;-76
2022/09/02 03:41:35;;;;;;;6.78;3.00;;;;;;;;;;5037735;28;20029;-76
2022/09/02 03:44:21;;;;;;;3.72;2.67;;;;;;;;;;5033161;28;20029;-76
2022/09/02 03:47:07;;;;;;;3.00;2.40;;;;;;;;;;5032695;28;20036;-75
2022/09/02 03:49:53;;;;;;;5.63;2.50;;;;;;;;;;5039749;28;20452;-75
2022/09/02 03:52:39;;;;;;;2.97;2.63;;;;;;;;;;5037227;28;20044;-75
2022/09/02 03:55:25;;;;;;;5.13;2.67;;;;;;;;;;5034005;28;20368;-75
2022/09/02 03:58:11;;;;;;;3.80;3.05;;;;;;;;;;5032392;28;20029;-75
2022/09/02 04:00:56;;;;;;;5.88;3.28;;;;;;;;;;5034098;28;20057;-77
2022/09/02 04:03:42;;;;;;;3.88;2.90;;;;;;;;;;5024500;28;20289;-76
2022/09/02 04:06:28;;;;;;;3.33;2.50;;;;;;;;;;5031448;28;20026;-72
2022/09/02 04:09:14;;;;;;;5.78;2.65;;;;;;;;;;5032492;28;20052;-72
2022/09/02 04:12:00;;;;;;;3.78;2.58;;;;;;;;;;5044782;28;20401;-71
2022/09/02 04:14:57;;;;;;;4.88;3.30;;;;;;;;;;5038241;28;20025;-72
2022/09/02 04:21:07;;;;;;;4.18;2.70;;;;;;;;;;5046100;28;20538;-75
2022/09/02 04:23:53;;;;;;;4.65;2.83;;;;;;;;;;5017475;28;20026;-75
2022/09/02 04:26:38;;;;;;;5.00;2.53;;;;;;;;;;5014654;28;20488;-76
2022/09/02 04:29:25;;;;;;;4.57;3.20;;;;;;;;;;5020463;28;20384;-76
2022/09/02 04:32:10;;;;;;;5.47;3.05;;;;;;;;;;5031374;28;20030;-76
2022/09/02 04:34:56;;;;;;;4.07;2.25;;;;;;;;;;5020282;28;20124;-76
2022/09/02 04:37:47;;;;;;;6.38;3.13;;;;;;;;;;5041872;28;20132;-77
2022/09/02 04:40:33;;;;;;;3.78;2.70;;;;;;;;;;5022238;28;20572;-75
2022/09/02 04:43:19;;;;;;;5.97;2.70;;;;;;;;;;5032129;28;20481;-73
2022/09/02 04:46:05;;;;;;;3.95;2.60;;;;;;;;;;5042065;28;20170;-72
2022/09/02 04:48:51;;;;;;;4.47;2.70;;;;;;;;;;5040348;28;20058;-73
2022/09/02 04:51:37;;;;;;;6.20;2.53;;;;;;;;;;5032606;28;20033;-73
2022/09/02 04:54:23;;;;;;;5.38;2.75;;;;;;;;;;5016904;28;20041;-73
2022/09/02 04:57:08;;;;;;;4.25;2.47;;;;;;;;;;5041927;28;20028;-73
2022/09/02 04:59:54;;;;;;;6.55;2.50;;;;;;;;;;5030916;28;20036;-76
2022/09/02 05:02:40;;;;;;;8.13;3.15;;;;;;;;;;5017261;28;20022;-76
2022/09/02 05:05:25;;;;;;;4.85;3.00;;;;;;;;;;5031273;28;20380;-75
2022/09/02 05:08:11;;;;;;;5.30;2.60;;;;;;;;;;5016690;28;20056;-75
2022/09/02 05:10:57;;;;;;;3.35;2.60;;;;;;;;;;5032558;28;20037;-76
2022/09/02 05:13:44;;;;;;;3.80;2.40;;;;;;;;;;5042789;28;20035;-75
2022/09/02 05:16:31;;;;;;;6.13;2.60;;;;;;;;;;5031281;28;20494;-75
2022/09/02 05:19:16;;;;;;;5.75;3.03;;;;;;;;;;5043798;28;20032;-72
2022/09/02 05:22:03;;;;;;;6.35;2.63;;;;;;;;;;5023274;28;20075;-71
2022/09/02 05:24:50;;;;;;;3.60;2.80;;;;;;;;;;5025281;28;20112;-72
2022/09/02 05:27:37;;;;;;;4.00;2.67;;;;;;;;;;5044050;28;20026;-71
2022/09/02 05:30:22;;;;;;;4.35;2.55;;;;;;;;;;5031999;28;20033;-72
2022/09/02 05:33:11;;;;;;;5.32;2.53;;;;;;;;;;5042985;28;20487;-71
2022/09/02 05:35:57;;;;;;;6.38;3.25;;;;;;;;;;5029200;28;20083;-84
2022/09/02 05:38:44;;;;;;;3.42;2.55;;;;;;;;;;5036200;28;20095;-75
2022/09/02 05:41:29;;;;;;;3.63;2.70;;;;;;;;;;5020013;28;20060;-75
2022/09/02 05:44:15;;;;;;;4.35;2.63;;;;;;;;;;5037852;28;20395;-75
2022/09/02 05:47:02;;;;;;;3.85;2.65;;;;;;;;;;5035092;28;20088;-77
2022/09/02 05:49:47;;;;;;;6.50;2.78;;;;;;;;;;5044442;28;20022;-76
2022/09/02 05:52:33;;;;;;;7.85;3.05;;;;;;;;;;5033151;28;20455;-70
2022/09/02 05:55:19;;;;;;;5.00;3.22;;;;;;;;;;5036184;28;20037;-81
2022/09/02 05:58:04;;;;;;;4.30;2.85;;;;;;;;;;5021682;28;20061;-73
2022/09/02 06:00:50;;;;;;;4.10;2.65;;;;;;;;;;5038469;28;20032;-72
2022/09/02 06:03:36;;;;;;;2.90;2.50;;;;;;;;;;5047549;28;20032;-72
2022/09/02 06:06:22;;;;;;;3.67;2.90;;;;;;;;;;5026222;28;20036;-73
2022/09/02 06:09:09;;;;;;;5.40;3.20;;;;;;;;;;5041541;28;20021;-72
2022/09/02 06:11:55;;;;;;;7.32;3.72;;;;;;;;;;5035420;28;20037;-76
2022/09/02 06:14:41;;;;;;;4.00;2.60;;;;;;;;;;5034696;28;20045;-77
2022/09/02 06:17:27;;;;;;;7.18;3.40;;;;;;;;;;5029143;28;20128;-76
2022/09/02 06:20:12;;;;;;;4.50;3.00;;;;;;;;;;5040515;28;20384;-78
2022/09/02 06:22:58;;;;;;;5.32;3.15;;;;;;;;;;5027368;28;20045;-78
2022/09/02 06:25:45;;;;;;;4.70;2.40;;;;;;;;;;5032817;28;20111;-76
2022/09/02 06:28:31;;;;;;;5.20;2.75;;;;;;;;;;5019628;28;20037;-77
2022/09/02 06:31:20;;;;;;;6.15;2.75;;;;;;;;;;5021957;28;20030;-77
2022/09/02 06:34:06;;;;;;;6.30;3.60;;;;;;;;;;5034540;28;20036;-77
2022/09/02 06:36:52;;;;;;;7.93;2.97;;;;;;;;;;5047166;28;20029;-77
2022/09/02 06:39:42;;;;;;;4.97;2.45;;;;;;;;;;5036645;28;20036;-78
2022/09/02 06:42:28;;;;;;;3.45;2.58;;;;;;;;;;5033798;28;20029;-77
2022/09/02 06:45:13;;;;;;;6.15;2.70;;;;;;;;;;5032080;28;20057;-77
2022/09/02 06:47:59;;;;;;;5.90;2.78;;;;;;;;;;5028109;28;20033;-75
2022/09/02 06:50:47;;;;;;;4.82;3.05;;;;;;;;;;5039917;28;20523;-79
2022/09/02 06:53:33;;;;;;;5.17;2.80;;;;;;;;;;5035851;28;20024;-85
2022/09/02 06:56:19;;;;;;;6.18;2.95;;;;;;;;;;5033321;28;20022;-85
2022/09/02 06:59:05;;;;;;;3.67;2.70;;;;;;;;;;5036029;28;20037;-83
2022/09/02 07:01:51;;;;;;;8.88;3.63;;;;;;;;;;5038451;28;20069;-85
2022/09/02 07:07:43;;;;;;;3.22;2.33;;;;;;;;;;5040745;28;20021;-78
2022/09/02 07:10:28;;;;;;;6.20;2.17;;;;;;;;;;5018366;28;20029;-78
2022/09/02 07:13:14;;;;;;;4.40;2.38;;;;;;;;;;5031813;28;20029;-79
2022/09/02 07:16:00;;;;;;;5.47;2.47;;;;;;;;;;5027529;28;20064;-76
2022/09/02 07:18:45;;;;;;;3.92;2.05;;;;;;;;;;5035513;28;20057;-76
2022/09/02 07:21:31;;;;;;;6.00;2.20;;;;;;;;;;5044534;28;20029;-77
2022/09/02 07:24:17;;;;;;;3.33;1.75;;;;;;;;;;5030316;28;20057;-77
2022/09/02 07:27:03;;;;;;;2.83;1.80;;;;;;;;;;5033806;28;20041;-79
2022/09/02 07:29:51;;;;;;;8.90;2.72;;;;;;;;;;5033565;28;20496;-80
2022/09/02 07:32:37;;;;;;;4.65;2.40;;;;;;;;;;5023399;28;20033;-79
2022/09/02 07:35:23;;;;;;;4.85;2.03;;;;;;;;;;5033624;28;20029;-78
2022/09/02 07:38:10;;;;;;;4.22;1.75;;;;;;;;;;5032497;28;20116;-77
2022/09/02 07:40:56;;;;;;;2.97;1.90;;;;;;;;;;5039756;28;20037;-78
2022/09/02 07:43:41;;;;;;;4.95;2.15;;;;;;;;;;5031263;28;20117;-78
2022/09/02 07:46:30;;;;;;;8.68;2.42;;;;;;;;;;5018235;28;20511;-73
2022/09/02 07:49:16;;;;;;;3.93;2.00;;;;;;;;;;5032832;28;20024;-72
2022/09/02 07:52:01;;;;;;;5.32;2.42;;;;;;;;;;5030676;28;20033;-72
2022/09/02 07:54:47;;;;;;;4.22;2.10;;;;;;;;;;5043506;28;20030;-73
2022/09/02 07:57:32;;;;;;;2.95;1.90;;;;;;;;;;5029757;28;20040;-73
2022/09/02 08:00:18;;;;;;;4.07;2.05;;;;;;;;;;5026801;28;20049;-73
2022/09/02 08:03:04;;;;;;;4.40;1.50;;;;;;;;;;5032695;28;20069;-71
2022/09/02 08:05:50;;;;;;;3.33;1.40;;;;;;;;;;5030989;28;20487;-78
2022/09/02 08:08:36;;;;;;;3.92;1.95;;;;;;;;;;5038964;28;20025;-77
2022/09/02 08:11:22;;;;;;;3.25;1.67;;;;;;;;;;5032205;28;20152;-77
2022/09/02 08:14:09;;;;;;;2.65;1.65;;;;;;;;;;5031673;28;20376;-78
2022/09/02 08:16:55;;;;;;;3.28;1.50;;;;;;;;;;5029922;28;20487;-78
2022/09/02 08:19:41;;;;;;;2.53;1.45;;;;;;;;;;5035451;28;20374;-78
2022/09/02 08:22:31;;;;;;;4.55;1.65;;;;;;;;;;5028857;28;20424;-73
2022/09/02 08:25:17;;;;;;;4.22;1.98;;;;;;;;;;5035836;28;20086;-72
2022/09/02 08:28:03;;;;;;;2.05;1.33;;;;;;;;;;5032637;28;20036;-74
2022/09/02 08:30:49;;;;;;;3.60;1.88;;;;;;;;;;5040781;28;20083;-73
2022/09/02 08:33:34;;;;;;;5.85;1.45;;;;;;;;;;5046829;28;20492;-74
2022/09/02 08:36:20;;;;;;;4.68;1.75;;;;;;;;;;5039506;28;20026;-73
2022/09/02 08:39:05;;;;;;;3.47;1.60;;;;;;;;;;5032058;28;20515;-74
2022/09/02 08:42:03;;;;;;;2.85;1.50;;;;;;;;;;5017493;28;20033;-75
2022/09/02 08:44:53;;;;;;;1.98;1.35;;;;;;;;;;5016334;28;20040;-74
2022/09/02 08:47:42;;;;;;;1.73;1.20;;;;;;;;;;5020137;28;20025;-75
2022/09/02 08:50:27;;;;;;;;;;;;;;;;;;5050543;28;20115;-75
2022/09/02 08:53:26;;;;;;;3.47;1.65;;;;;;;;;;5031815;28;20395;-76
2022/09/02 08:56:14;;;;;;;2.50;1.50;;;;;;;;;;5029541;28;20404;-75
2022/09/02 08:59:02;;;;;;;2.45;1.58;;;;;;;;;;5042630;28;20033;-79
2022/09/02 09:02:11;;;;;;;4.30;1.63;;;;;;;;;;5044896;28;20384;-76
2022/09/02 09:05:14;;;;;;;3.97;1.63;;;;;;;;;;5040483;28;20045;-75
2022/09/02 09:08:03;;;;;;;2.95;1.33;;;;;;;;;;5019357;28;20025;-76
2022/09/02 09:11:03;;;;;;;2.95;1.50;;;;;;;;;;5036777;28;20399;-77
2022/09/02 09:14:09;;;;;;;3.33;1.27;;;;;;;;;;5017344;28;20116;-76
2022/09/02 09:16:54;;;;;;;3.22;1.40;;;;;;;;;;5037063;28;20060;-81
2022/09/02 09:19:43;;;;;;;4.32;1.35;;;;;;;;;;5039405;28;20037;-76
2022/09/02 09:22:31;;;;;;;2.25;1.60;;;;;;;;;;5019219;28;20388;-77
2022/09/02 09:25:17;;;;;;;2.10;1.20;;;;;;;;;;5031480;28;20042;-76
2022/09/02 09:28:03;;;;;;;3.10;1.15;;;;;;;;;;5045538;28;20051;-75
2022/09/02 09:30:48;;;;;;;2.22;1.13;;;;;;;;;;5016817;28;20029;-75
2022/09/02 09:33:34;;;;;;;3.55;1.02;;;;;;;;;;5016886;28;20036;-77
2022/09/02 09:36:40;;;;;;;2.75;1.10;;;;;;;;;;5016611;28;20119;-79
2022/09/02 09:39:28;;;;;;;1.48;1.13;;;;;;;;;;5039234;28;20029;-76
2022/09/02 09:42:14;;;;;;;1.25;1.13;;;;;;;;;;5016349;28;20505;-75
2022/09/02 09:44:59;;;;;;;8.43;1.73;;;;;;;;;;5030283;28;20147;-75
2022/09/02 09:47:45;;;;;;;2.15;1.30;;;;;;;;;;5038584;28;20488;-76
2022/09/02 09:50:30;;;;;;;1.67;1.02;;;;;;;;;;5030978;28;20053;-75
2022/09/02 09:53:21;;;;;;;7.50;2.42;;;;;;;;;;5031374;28;20048;-87
2022/09/02 09:56:21;;;;;;;2.83;1.17;;;;;;;;;;5024876;28;20030;-75
2022/09/02 09:59:27;;;;;;;1.63;1.00;;;;;;;;;;5036602;28;20038;-74
2022/09/02 10:02:20;;;;;;;3.63;1.35;;;;;;;;;;5020050;28;20112;-76
2022/09/02 10:05:16;;;;;;;3.17;1.15;;;;;;;;;;5047124;28;20033;-76
2022/09/02 10:08:02;;;;;;;1.25;1.00;;;;;;;;;;5022067;28;20120;-74
2022/09/02 10:10:57;;;;;;;2.95;1.10;;;;;;;;;;5029758;28;20041;-81
2022/09/02 10:13:42;;;;;;;4.88;1.30;;;;;;;;;;5029813;28;20033;-78
2022/09/02 10:16:28;;;;;;;1.75;0.90;;;;;;;;;;5033261;28;20040;-78
2022/09/02 10:19:22;;;;;;;4.25;1.20;;;;;;;;;;5034419;28;20033;-78
2022/09/02 10:22:27;;;;;;;1.15;0.85;;;;;;;;;;5036097;28;20045;-77
2022/09/02 10:25:19;;;;;;;4.03;1.00;;;;;;;;;;5037545;28;20033;-79
2022/09/02 10:28:12;;;;;;;2.13;0.95;;;;;;;;;;5034181;28;20094;-79
2022/09/02 10:31:04;;;;;;;1.35;0.90;;;;;;;;;;5043969;28;20036;-82
2022/09/02 10:33:56;;;;;;;3.50;0.90;;;;;;;;;;5037176;28;20024;-75
2022/09/02 10:36:41;;;;;;;4.50;1.00;;;;;;;;;;5022974;28;20029;-76
2022/09/02 10:39:30;;;;;;;3.15;1.40;;;;;;;;;;5030970;28;20041;-76
2022/09/02 10:42:23;;;;;;;1.48;1.10;;;;;;;;;;5049129;28;20025;-76
2022/09/02 10:45:18;;;;;;;0.88;0.88;;;;;;;;;;5042278;28;20032;-75
2022/09/02 10:48:11;;;;;;;2.95;1.15;;;;;;;;;;5034168;28;20104;-73
2022/09/02 10:51:00;;;;;;;2.20;1.02;;;;;;;;;;5032393;28;20374;-87
2022/09/02 10:53:46;;;;;;;;;;;;;;;;;;5022369;28;20030;-86
2022/09/02 10:56:36;;;;;;;1.45;1.00;;;;;;;;;;5039381;28;19912;-85
2022/09/02 10:59:40;;;;;;;1.90;1.00;;;;;;;;;;5037527;28;20034;-85
2022/09/02 11:02:41;;;;;;;3.08;1.00;;;;;;;;;;5040947;28;20119;-86
2022/09/02 11:05:46;;;;;;;1.88;0.98;;;;;;;;;;5018718;28;20086;-74
2022/09/02 11:08:38;;;;;;;2.03;1.00;;;;;;;;;;5033690;28;20033;-78
2022/09/02 11:11:28;;;;;;;3.78;1.15;;;;;;;;;;5023516;28;20488;-78
2022/09/02 11:14:22;;;;;;;2.60;1.23;;;;;;;;;;5036592;28;20029;-79
2022/09/02 11:17:29;;;;;;;2.22;1.20;;;;;;;;;;5031889;28;20021;-77
2022/09/02 11:20:18;;;;;;;1.85;1.27;;;;;;;;;;5036615;28;20115;-77
2022/09/02 11:23:22;;;;;;;3.33;1.08;;;;;;;;;;5027126;28;20033;-77
2022/09/02 11:26:40;;;;;;;3.63;1.17;;;;;;;;;;5035854;28;20037;-87
2022/09/02 11:29:31;;;;;;;3.90;1.15;;;;;;;;;;5008025;28;20088;-75
2022/09/02 11:32:28;;;;;;;1.55;1.05;;;;;;;;;;5032026;28;20052;-75
2022/09/02 11:35:17;;;;;;;3.20;1.35;;;;;;;;;;5042502;28;20037;-76
2022/09/02 11:38:04;;;;;;;1.83;1.10;;;;;;;;;;5040456;28;20025;-75
2022/09/02 11:40:56;;;;;;;0.90;0.90;;;;;;;;;;5040599;28;20037;-75
2022/09/02 11:44:00;;;;;;;2.53;1.40;;;;;;;;;;5032958;28;20029;-77
2022/09/02 11:46:45;;;;;;;2.47;1.50;;;;;;;;;;5042945;28;20108;-76
2022/09/02 11:49:40;;;;;;;5.28;1.20;;;;;;;;;;5022915;28;20048;-76
2022/09/02 11:52:44;;;;;;;3.38;1.27;;;;;;;;;;5045129;28;20475;-77
2022/09/02 11:55:36;;;;;;;3.00;1.15;;;;;;;;;;5036905;28;20029;-76
2022/09/02 11:58:35;;;;;;;1.70;1.15;;;;;;;;;;5034029;28;20504;-77
2022/09/02 12:01:20;;;;;;;4.15;1.20;;;;;;;;;;5044325;28;20577;-74
2022/09/02 12:04:12;;;;;;;5.22;1.20;;;;;;;;;;5051019;28;20036;-71
2022/09/02 12:07:07;;;;;;;2.70;1.10;;;;;;;;;;5018122;28;20029;-71
2022/09/02 12:09:54;;;;;;;6.07;1.08;;;;;;;;;;5023316;28;20064;-71
2022/09/02 12:12:40;;;;;;;1.65;1.00;;;;;;;;;;5016633;28;20112;-71
2022/09/02 12:15:26;;;;;;;1.10;1.00;;;;;;;;;;5032570;28;20064;-71
2022/09/02 12:18:13;;;;;;;5.53;1.20;;;;;;;;;;5032522;28;20488;-70
2022/09/02 12:20:58;;;;;;;2.85;1.23;;;;;;;;;;5036401;28;20037;-77
2022/09/02 12:23:47;;;;;;;2.13;1.17;;;;;;;;;;5037957;28;20061;-77
2022/09/02 12:26:36;;;;;;;1.20;1.10;;;;;;;;;;5021714;28;20133;-78
2022/09/02 12:29:23;;;;;;;;;;;;;;;;;;5050345;28;20072;-76
2022/09/02 12:32:08;;;;;;;1.58;1.00;;;;;;;;;;5038893;28;19921;-77
2022/09/02 12:34:55;;;;;;;2.85;1.60;;;;;;;;;;5035113;28;20441;-76
2022/09/02 12:38:15;;;;;;;2.42;1.25;;;;;;;;;;5037170;28;20036;-78
2022/09/02 12:41:04;;;;;;;3.30;1.17;;;;;;;;;;5029437;28;20033;-72
2022/09/02 12:44:08;;;;;;;3.85;1.73;;;;;;;;;;5034044;28;20033;-73
2022/09/02 12:46:58;;;;;;;1.98;1.10;;;;;;;;;;5017515;28;20087;-71
2022/09/02 12:50:02;;;;;;;3.92;1.27;;;;;;;;;;5018555;28;20029;-72
2022/09/02 12:52:49;;;;;;;3.20;1.15;;;;;;;;;;5041802;28;20053;-72
2022/09/02 12:55:35;;;;;;;3.00;1.48;;;;;;;;;;5038678;28;20029;-73
2022/09/02 12:58:21;;;;;;;2.17;1.10;;;;;;;;;;5035406;28;20495;-77
2022/09/02 13:01:16;;;;;;;3.28;1.30;;;;;;;;;;5043504;28;20124;-74
2022/09/02 13:04:02;;;;;;;1.83;1.35;;;;;;;;;;5040032;28;20329;-74
2022/09/02 13:07:19;;;;;;;2.78;1.23;;;;;;;;;;5042411;28;20052;-73
2022/09/02 13:10:17;;;;;;;1.33;1.17;;;;;;;;;;4991144;28;20176;-75
2022/09/02 13:13:03;;;;;;;1.60;1.33;;;;;;;;;;5030414;28;20400;-73
2022/09/02 13:15:48;;;;;;;1.65;1.20;;;;;;;;;;5021757;28;20031;-79
2022/09/02 13:19:13;;;;;;;3.75;1.63;;;;;;;;;;5043016;28;20095;-90
2022/09/02 13:22:25;;;;;;;2.47;1.25;;;;;;;;;;4978717;28;20038;-91
2022/09/02 13:25:25;;;;;;;2.17;1.17;;;;;;;;;;4986552;28;20418;-89
2022/09/02 13:28:30;;;;;;;3.50;1.58;;;;;;;;;;5041039;28;20392;-89
2022/09/02 13:31:26;;;;;;;2.35;1.45;;;;;;;;;;5019219;28;20104;-90
2022/09/02 13:34:12;;;;;;;2.53;1.58;;;;;;;;;;5022455;28;20063;-77
2022/09/02 13:36:58;;;;;;;1.75;1.27;;;;;;;;;;5029211;28;20174;-77
2022/09/02 13:39:43;;;;;;;6.13;1.38;;;;;;;;;;5031151;28;20030;-78
2022/09/02 13:42:29;;;;;;;2.55;1.38;;;;;;;;;;5029784;28;20048;-79
2022/09/02 13:45:16;;;;;;;3.45;1.30;;;;;;;;;;5025910;28;20357;-78
2022/09/02 13:48:06;;;;;;;3.10;1.65;;;;;;;;;;5033226;28;20101;-78
2022/09/02 13:50:53;;;;;;;3.78;1.50;;;;;;;;;;5032662;28;20030;-78
2022/09/02 13:53:41;;;;;;;3.83;1.50;;;;;;;;;;5044674;28;20120;-77
2022/09/02 13:56:29;;;;;;;2.80;1.63;;;;;;;;;;5021315;28;20047;-73
2022/09/02 13:59:29;;;;;;;2.92;1.77;;;;;;;;;;5038846;28;20464;-74
2022/09/02 14:02:29;;;;;;;2.38;1.35;;;;;;;;;;5035034;28;20029;-74
2022/09/02 14:05:18;;;;;;;4.45;1.42;;;;;;;;;;5033711;28;20029;-75
2022/09/02 14:08:05;;;;;;;2.63;1.55;;;;;;;;;;5034074;28;20030;-74
2022/09/02 14:10:52;;;;;;;4.03;1.63;;;;;;;;;;5033643;28;20041;-74
2022/09/02 14:13:41;;;;;;;3.17;1.50;;;;;;;;;;5022538;28;20029;-77
2022/09/02 14:16:27;;;;;;;;;;;;;;;;;;5034359;28;20552;-78
2022/09/02 14:19:16;;;;;;;3.03;1.50;;;;;;;;;;5044694;28;20264;-78
2022/09/02 14:22:01;;;;;;;7.07;2.03;;;;;;;;;;5021197;28;20038;-76
2022/09/02 14:24:47;;;;;;;2.40;1.23;;;;;;;;;;5026672;28;20041;-77
2022/09/02 14:27:32;;;;;;;2.45;1.30;;;;;;;;;;5050482;28;21219;-78
2022/09/02 14:30:27;;;;;;;3.38;1.40;;;;;;;;;;5032999;28;20033;-78
2022/09/02 14:33:24;;;;;;;3.15;1.40;;;;;;;;;;5018945;28;20025;-79
2022/09/02 14:36:09;;;;;;;2.28;1.55;;;;;;;;;;5034126;28;20033;-78
2022/09/02 14:38:56;;;;;;;3.55;2.00;;;;;;;;;;5025285;28;20025;-78
2022/09/02 14:41:52;;;;;;;5.22;1.25;;;;;;;;;;5033208;28;20037;-78
2022/09/02 14:44:39;;;;;;;3.28;1.42;;;;;;;;;;5032497;28;20029;-78
2022/09/02 14:47:26;;;;;;;2.60;1.42;;;;;;;;;;5032443;28;20029;-73
2022/09/02 14:50:16;;;;;;;2.15;1.50;;;;;;;;;;5019786;28;20104;-77
2022/09/02 14:53:04;;;;;;;3.83;1.60;;;;;;;;;;5040891;28;20036;-78
2022/09/02 14:55:51;;;;;;;2.17;1.33;;;;;;;;;;5032679;28;20388;-78
2022/09/02 14:58:37;;;;;;;2.55;1.48;;;;;;;;;;5030812;28;20453;-78
2022/09/02 15:01:22;;;;;;;3.13;1.67;;;;;;;;;;5030176;28;20043;-77
2022/09/02 15:04:09;;;;;;;2.42;1.33;;;;;;;;;;5028608;28;20365;-78
2022/09/02 15:06:55;;;;;;;1.30;1.20;;;;;;;;;;5032731;28;20079;-79
2022/09/02 15:09:43;;;;;;;3.67;1.63;;;;;;;;;;5044151;28;20029;-86
2022/09/02 15:12:33;;;;;;;2.95;1.52;;;;;;;;;;5027011;28;20037;-87
2022/09/02 15:15:19;;;;;;;4.97;1.58;;;;;;;;;;5040004;28;20041;-86
2022/09/02 15:18:04;;;;;;;2.10;1.45;;;;;;;;;;5034343;28;20029;-86
2022/09/02 15:20:51;;;;;;;1.67;1.20;;;;;;;;;;5032254;28;20037;-85
2022/09/02 15:23:39;;;;;;;2.97;1.45;;;;;;;;;;5028889;28;20041;-78
2022/09/02 15:26:25;;;;;;;1.83;1.30;;;;;;;;;;5031984;28;20384;-74
2022/09/02 15:29:10;;;;;;;4.63;1.70;;;;;;;;;;5019025;28;20060;-73
2022/09/02 15:31:56;;;;;;;1.98;1.40;;;;;;;;;;5029265;28;20029;-73
2022/09/02 15:34:42;;;;;;;4.15;1.63;;;;;;;;;;5044769;28;20491;-74
2022/09/02 15:37:27;;;;;;;2.95;1.20;;;;;;;;;;5018313;28;20021;-73
2022/09/02 15:40:13;;;;;;;2.85;1.58;;;;;;;;;;5031773;28;20516;-73
2022/09/02 15:42:59;;;;;;;2.17;1.50;;;;;;;;;;5032638;28;20084;-76
2022/09/02 15:45:48;;;;;;;2.63;1.30;;;;;;;;;;5026992;28;20467;-76
2022/09/02 15:48:33;;;;;;;2.92;1.58;;;;;;;;;;5034105;28;20037;-75
2022/09/02 15:51:20;;;;;;;2.25;1.35;;;;;;;;;;5035013;28;20033;-76
2022/09/02 15:54:10;;;;;;;4.00;1.50;;;;;;;;;;5032972;28;20037;-76
2022/09/02 15:56:57;;;;;;;3.45;1.30;;;;;;;;;;5044707;28;20032;-76
2022/09/02 15:59:42;;;;;;;2.90;1.35;;;;;;;;;;5022174;28;20071;-77
2022/09/02 16:02:28;;;;;;;2.08;1.30;;;;;;;;;;5031922;28;20160;-85
2022/09/02 16:05:14;;;;;;;1.77;1.23;;;;;;;;;;5032588;28;20473;-78
2022/09/02 16:08:00;;;;;;;1.92;1.38;;;;;;;;;;5018064;28;20088;-78
2022/09/02 16:10:45;;;;;;;4.07;1.65;;;;;;;;;;5032940;28;20060;-78
2022/09/02 16:13:33;;;;;;;4.22;1.42;;;;;;;;;;5037264;28;20205;-77
2022/09/02 16:16:19;;;;;;;2.92;1.40;;;;;;;;;;5032530;28;20472;-77
2022/09/02 16:19:06;;;;;;;3.53;1.55;;;;;;;;;;5044533;28;20029;-76
2022/09/02 16:21:51;;;;;;;5.32;1.73;;;;;;;;;;5032017;28;20037;-74
2022/09/02 16:24:37;;;;;;;4.30;1.25;;;;;;;;;;5032432;28;20408;-73
2022/09/02 16:27:50;;;;;;;2.30;1.30;;;;;;;;;;5019445;28;20097;-73
2022/09/02 16:30:28;;;;;;;2.28;1.33;;;;;;;;;;5032156;28;20120;-73
2022/09/02 16:33:14;;;;;;;4.13;1.60;;;;;;;;;;5023032;28;20036;-72
2022/09/02 16:36:00;;;;;;;2.33;1.20;;;;;;;;;;5031434;28;20018;-72
2022/09/02 16:38:46;;;;;;;1.38;1.27;;;;;;;;;;5030523;28;20103;-77
2022/09/02 16:41:35;;;;;;;3.60;1.55;;;;;;;;;;5037456;28;20029;-75
2022/09/02 16:44:22;;;;;;;3.88;1.70;;;;;;;;;;5044409;28;20033;-77
2022/09/02 16:47:07;;;;;;;2.85;1.90;;;;;;;;;;5045577;28;20064;-76
2022/09/02 16:49:53;;;;;;;2.38;1.50;;;;;;;;;;5032568;28;20256;-76
2022/09/02 16:52:39;;;;;;;3.30;1.60;;;;;;;;;;5042164;28;20058;-76
2022/09/02 16:55:25;;;;;;;2.65;1.50;;;;;;;;;;5033484;28;20064;-85
2022/09/02 16:58:12;;;;;;;3.35;1.40;;;;;;;;;;5042597;28;20037;-77